sensor_id;sensor_type;location;lat;lon;timestamp;pressure;altitude;pressure_sealevel;temperature;humidity
64460;BME280;50828;53.756;21.140;2023-05-08T00:04:33;101211.77;;;4.14;46.54
64460;BME280;50828;53.756;21.140;2023-05-08T00:09:40;101210.86;;;4.05;46.70
64460;BME280;50828;53.756;21.140;2023-05-08T00:14:47;101214.32;;;3.97;46.81
64460;BME280;50828;53.756;21.140;2023-05-08T00:19:54;101213.38;;;3.84;46.52
64460;BME280;50828;53.756;21.140;2023-05-08T00:25:02;101215.95;;;3.75;47.10
64460;BME280;50828;53.756;21.140;2023-05-08T00:30:11;101211.00;;;3.64;47.10
64460;BME280;50828;53.756;21.140;2023-05-08T00:35:19;101221.23;;;3.56;46.99
64460;BME280;50828;53.756;21.140;2023-05-08T00:40:27;101227.09;;;3.44;47.03
64460;BME280;50828;53.756;21.140;2023-05-08T00:45:36;101231.02;;;3.34;47.20
64460;BME280;50828;53.756;21.140;2023-05-08T00:50:45;101234.76;;;3.23;47.11
64460;BME280;50828;53.756;21.140;2023-05-08T00:55:53;101237.83;;;3.13;47.33
64460;BME280;50828;53.756;21.140;2023-05-08T01:01:01;101236.70;;;3.04;47.66
64460;BME280;50828;53.756;21.140;2023-05-08T01:06:09;101238.02;;;2.95;47.87
64460;BME280;50828;53.756;21.140;2023-05-08T01:11:20;101247.34;;;2.88;48.14
64460;BME280;50828;53.756;21.140;2023-05-08T01:16:34;101256.50;;;2.80;47.94
64460;BME280;50828;53.756;21.140;2023-05-08T01:21:47;101259.17;;;2.70;48.21
64460;BME280;50828;53.756;21.140;2023-05-08T01:27:21;101256.48;;;2.63;48.29
64460;BME280;50828;53.756;21.140;2023-05-08T01:32:34;101263.70;;;2.54;48.70
64460;BME280;50828;53.756;21.140;2023-05-08T01:37:48;101264.80;;;2.45;48.40
64460;BME280;50828;53.756;21.140;2023-05-08T01:43:00;101264.05;;;2.38;48.80
64460;BME280;50828;53.756;21.140;2023-05-08T01:48:12;101265.70;;;2.30;48.76
64460;BME280;50828;53.756;21.140;2023-05-08T01:53:25;101264.02;;;2.23;48.87
64460;BME280;50828;53.756;21.140;2023-05-08T01:58:35;101266.89;;;2.15;49.07
64460;BME280;50828;53.756;21.140;2023-05-08T02:03:43;101267.30;;;2.07;49.20
64460;BME280;50828;53.756;21.140;2023-05-08T02:08:52;101265.30;;;2.00;49.35
64460;BME280;50828;53.756;21.140;2023-05-08T02:14:01;101265.55;;;1.92;49.46
64460;BME280;50828;53.756;21.140;2023-05-08T02:19:09;101271.20;;;1.87;49.73
64460;BME280;50828;53.756;21.140;2023-05-08T02:24:17;101278.24;;;1.80;49.92
64460;BME280;50828;53.756;21.140;2023-05-08T02:29:26;101278.16;;;1.75;50.00
64460;BME280;50828;53.756;21.140;2023-05-08T02:34:34;101280.52;;;1.69;50.05
64460;BME280;50828;53.756;21.140;2023-05-08T02:39:54;101284.23;;;1.63;50.11
64460;BME280;50828;53.756;21.140;2023-05-08T02:45:03;101288.84;;;1.58;50.04
64460;BME280;50828;53.756;21.140;2023-05-08T02:50:16;101291.88;;;1.52;50.13
64460;BME280;50828;53.756;21.140;2023-05-08T02:55:34;101299.96;;;1.47;50.49
64460;BME280;50828;53.756;21.140;2023-05-08T03:00:51;101301.25;;;1.41;50.73
64460;BME280;50828;53.756;21.140;2023-05-08T03:06:03;101301.14;;;1.35;50.84
64460;BME280;50828;53.756;21.140;2023-05-08T03:11:15;101308.20;;;1.31;51.01
64460;BME280;50828;53.756;21.140;2023-05-08T03:16:25;101307.98;;;1.27;51.31
64460;BME280;50828;53.756;21.140;2023-05-08T03:21:35;101313.83;;;1.24;51.60
64460;BME280;50828;53.756;21.140;2023-05-08T03:26:44;101314.16;;;1.24;51.65
64460;BME280;50828;53.756;21.140;2023-05-08T03:31:52;101317.47;;;1.24;52.56
64460;BME280;50828;53.756;21.140;2023-05-08T03:37:00;101315.94;;;1.26;52.19
64460;BME280;50828;53.756;21.140;2023-05-08T03:42:07;101316.75;;;1.33;52.36
64460;BME280;50828;53.756;21.140;2023-05-08T03:47:16;101316.83;;;1.49;52.70
64460;BME280;50828;53.756;21.140;2023-05-08T03:52:24;101313.95;;;1.64;52.86
64460;BME280;50828;53.756;21.140;2023-05-08T03:57:39;101314.22;;;1.82;52.95
64460;BME280;50828;53.756;21.140;2023-05-08T04:02:54;101313.80;;;2.02;53.34
64460;BME280;50828;53.756;21.140;2023-05-08T04:08:08;101318.04;;;2.19;53.49
64460;BME280;50828;53.756;21.140;2023-05-08T04:13:21;101321.02;;;2.35;53.77
64460;BME280;50828;53.756;21.140;2023-05-08T04:18:31;101325.23;;;2.51;54.05
64460;BME280;50828;53.756;21.140;2023-05-08T04:23:42;101327.88;;;2.69;53.98
64460;BME280;50828;53.756;21.140;2023-05-08T04:28:51;101335.94;;;2.90;54.15
64460;BME280;50828;53.756;21.140;2023-05-08T04:33:59;101341.92;;;3.14;54.30
64460;BME280;50828;53.756;21.140;2023-05-08T04:39:07;101345.34;;;3.44;54.12
64460;BME280;50828;53.756;21.140;2023-05-08T04:44:14;101344.23;;;3.79;54.08
64460;BME280;50828;53.756;21.140;2023-05-08T04:49:22;101340.65;;;4.22;54.14
64460;BME280;50828;53.756;21.140;2023-05-08T04:54:30;101340.85;;;4.67;54.12
64460;BME280;50828;53.756;21.140;2023-05-08T04:59:37;101346.75;;;5.14;54.19
64460;BME280;50828;53.756;21.140;2023-05-08T05:04:45;101347.84;;;5.62;54.19
64460;BME280;50828;53.756;21.140;2023-05-08T05:09:53;101350.27;;;6.09;53.80
64460;BME280;50828;53.756;21.140;2023-05-08T05:15:00;101348.38;;;6.58;53.67
64460;BME280;50828;53.756;21.140;2023-05-08T05:20:12;101343.77;;;7.05;53.34
64460;BME280;50828;53.756;21.140;2023-05-08T05:25:19;101351.45;;;7.57;53.42
64460;BME280;50828;53.756;21.140;2023-05-08T05:30:27;101351.02;;;8.05;52.88
64460;BME280;50828;53.756;21.140;2023-05-08T05:35:34;101347.88;;;8.54;52.23
64460;BME280;50828;53.756;21.140;2023-05-08T05:40:41;101350.75;;;9.03;52.06
64460;BME280;50828;53.756;21.140;2023-05-08T05:45:49;101356.11;;;9.56;51.68
64460;BME280;50828;53.756;21.140;2023-05-08T05:50:57;101360.19;;;10.06;51.12
64460;BME280;50828;53.756;21.140;2023-05-08T05:56:05;101368.50;;;10.52;51.09
64460;BME280;50828;53.756;21.140;2023-05-08T06:01:13;101364.15;;;10.91;50.55
64460;BME280;50828;53.756;21.140;2023-05-08T06:06:20;101373.11;;;11.25;50.02
64460;BME280;50828;53.756;21.140;2023-05-08T06:11:28;101378.33;;;11.50;49.20
64460;BME280;50828;53.756;21.140;2023-05-08T06:16:35;101377.59;;;11.74;49.10
64460;BME280;50828;53.756;21.140;2023-05-08T06:21:42;101375.48;;;11.95;48.77
64460;BME280;50828;53.756;21.140;2023-05-08T06:26:50;101380.40;;;12.17;48.18
64460;BME280;50828;53.756;21.140;2023-05-08T06:31:57;101375.19;;;12.40;47.81
64460;BME280;50828;53.756;21.140;2023-05-08T06:37:04;101372.82;;;12.67;47.12
64460;BME280;50828;53.756;21.140;2023-05-08T06:42:11;101369.59;;;12.93;46.58
64460;BME280;50828;53.756;21.140;2023-05-08T06:47:19;101370.69;;;13.21;46.24
64460;BME280;50828;53.756;21.140;2023-05-08T06:52:27;101376.56;;;13.49;45.45
64460;BME280;50828;53.756;21.140;2023-05-08T06:57:35;101376.66;;;13.73;44.93
64460;BME280;50828;53.756;21.140;2023-05-08T07:02:42;101380.36;;;13.95;44.21
64460;BME280;50828;53.756;21.140;2023-05-08T07:07:50;101367.73;;;14.02;42.96
64460;BME280;50828;53.756;21.140;2023-05-08T07:12:58;101380.27;;;14.18;42.10
64460;BME280;50828;53.756;21.140;2023-05-08T07:18:06;101375.13;;;14.23;41.37
64460;BME280;50828;53.756;21.140;2023-05-08T07:23:13;101374.73;;;14.29;40.86
64460;BME280;50828;53.756;21.140;2023-05-08T07:28:21;101376.27;;;14.36;39.97
64460;BME280;50828;53.756;21.140;2023-05-08T07:33:28;101374.52;;;14.45;39.57
64460;BME280;50828;53.756;21.140;2023-05-08T07:38:36;101372.72;;;14.55;38.96
64460;BME280;50828;53.756;21.140;2023-05-08T07:43:43;101374.23;;;14.68;38.59
64460;BME280;50828;53.756;21.140;2023-05-08T07:48:51;101371.70;;;14.83;37.81
64460;BME280;50828;53.756;21.140;2023-05-08T07:53:58;101375.21;;;14.99;37.36
64460;BME280;50828;53.756;21.140;2023-05-08T07:59:06;101377.98;;;15.14;36.58
64460;BME280;50828;53.756;21.140;2023-05-08T08:04:13;101383.07;;;15.29;35.94
64460;BME280;50828;53.756;21.140;2023-05-08T08:09:21;101380.98;;;15.41;35.52
64460;BME280;50828;53.756;21.140;2023-05-08T08:14:29;101384.75;;;15.49;34.99
64460;BME280;50828;53.756;21.140;2023-05-08T08:19:36;101383.29;;;15.54;34.88
64460;BME280;50828;53.756;21.140;2023-05-08T08:24:44;101378.84;;;15.55;34.47
64460;BME280;50828;53.756;21.140;2023-05-08T08:29:52;101382.08;;;15.54;34.22
64460;BME280;50828;53.756;21.140;2023-05-08T08:35:19;101376.63;;;15.52;33.79
64460;BME280;50828;53.756;21.140;2023-05-08T08:40:31;101372.66;;;15.54;33.94
64460;BME280;50828;53.756;21.140;2023-05-08T08:45:38;101375.81;;;15.55;33.92
64460;BME280;50828;53.756;21.140;2023-05-08T08:50:48;101370.20;;;15.57;33.97
64460;BME280;50828;53.756;21.140;2023-05-08T08:55:58;101371.29;;;15.61;33.50
64460;BME280;50828;53.756;21.140;2023-05-08T09:01:07;101374.83;;;15.62;33.27
64460;BME280;50828;53.756;21.140;2023-05-08T09:06:16;101372.02;;;15.61;33.15
64460;BME280;50828;53.756;21.140;2023-05-08T09:11:23;101366.89;;;15.60;33.03
64460;BME280;50828;53.756;21.140;2023-05-08T09:16:31;101359.23;;;15.61;33.07
64460;BME280;50828;53.756;21.140;2023-05-08T09:21:39;101353.97;;;15.60;32.66
64460;BME280;50828;53.756;21.140;2023-05-08T09:26:47;101355.66;;;15.62;32.70
64460;BME280;50828;53.756;21.140;2023-05-08T09:31:54;101338.25;;;15.58;32.66
64460;BME280;50828;53.756;21.140;2023-05-08T09:37:13;101350.63;;;15.67;32.26
64460;BME280;50828;53.756;21.140;2023-05-08T09:42:21;101347.84;;;15.70;31.93
64460;BME280;50828;53.756;21.140;2023-05-08T09:47:29;101346.18;;;15.72;31.52
64460;BME280;50828;53.756;21.140;2023-05-08T09:52:37;101332.49;;;15.68;31.65
64460;BME280;50828;53.756;21.140;2023-05-08T09:57:54;101340.58;;;15.79;31.44
64460;BME280;50828;53.756;21.140;2023-05-08T10:03:04;101338.42;;;15.84;31.35
64460;BME280;50828;53.756;21.140;2023-05-08T10:08:22;101337.13;;;15.89;31.32
64460;BME280;50828;53.756;21.140;2023-05-08T10:13:30;101337.63;;;15.94;30.88
64460;BME280;50828;53.756;21.140;2023-05-08T10:18:39;101335.90;;;15.97;30.74
64460;BME280;50828;53.756;21.140;2023-05-08T10:23:49;101324.55;;;16.01;30.49
64460;BME280;50828;53.756;21.140;2023-05-08T10:29:01;101315.40;;;16.03;30.10
64460;BME280;50828;53.756;21.140;2023-05-08T10:34:17;101309.04;;;16.06;30.04
64460;BME280;50828;53.756;21.140;2023-05-08T10:39:25;101314.62;;;16.13;30.34
64460;BME280;50828;53.756;21.140;2023-05-08T10:44:35;101309.95;;;16.18;30.32
64460;BME280;50828;53.756;21.140;2023-05-08T10:49:48;101303.99;;;16.24;30.23
64460;BME280;50828;53.756;21.140;2023-05-08T10:55:14;101304.14;;;16.28;30.05
64460;BME280;50828;53.756;21.140;2023-05-08T11:00:23;101300.88;;;16.34;29.74
64460;BME280;50828;53.756;21.140;2023-05-08T11:05:31;101294.91;;;16.40;30.06
64460;BME280;50828;53.756;21.140;2023-05-08T11:10:59;101290.25;;;16.44;29.51
64460;BME280;50828;53.756;21.140;2023-05-08T11:16:09;101291.69;;;16.48;29.38
64460;BME280;50828;53.756;21.140;2023-05-08T11:21:21;101292.77;;;16.51;29.12
64460;BME280;50828;53.756;21.140;2023-05-08T11:26:40;101291.20;;;16.55;29.05
64460;BME280;50828;53.756;21.140;2023-05-08T11:31:54;101285.86;;;16.59;29.28
64460;BME280;50828;53.756;21.140;2023-05-08T11:37:09;101281.16;;;16.64;29.12
64460;BME280;50828;53.756;21.140;2023-05-08T11:42:35;101273.84;;;16.69;29.03
64460;BME280;50828;53.756;21.140;2023-05-08T11:47:44;101265.59;;;16.74;28.70
64460;BME280;50828;53.756;21.140;2023-05-08T11:52:52;101259.25;;;16.76;28.49
64460;BME280;50828;53.756;21.140;2023-05-08T11:57:59;101255.44;;;16.78;28.42
64460;BME280;50828;53.756;21.140;2023-05-08T12:03:07;101258.08;;;16.78;28.39
64460;BME280;50828;53.756;21.140;2023-05-08T12:08:18;101255.52;;;16.76;28.28
64460;BME280;50828;53.756;21.140;2023-05-08T12:13:28;101254.13;;;16.79;28.30
64460;BME280;50828;53.756;21.140;2023-05-08T12:18:36;101253.30;;;16.81;28.20
64460;BME280;50828;53.756;21.140;2023-05-08T12:23:44;101244.60;;;16.85;28.10
64460;BME280;50828;53.756;21.140;2023-05-08T12:28:56;101243.34;;;16.90;28.14
64460;BME280;50828;53.756;21.140;2023-05-08T12:34:04;101239.77;;;16.93;28.25
64460;BME280;50828;53.756;21.140;2023-05-08T12:39:14;101237.63;;;17.00;28.31
64460;BME280;50828;53.756;21.140;2023-05-08T12:44:23;101235.48;;;17.05;27.85
64460;BME280;50828;53.756;21.140;2023-05-08T12:49:32;101236.27;;;17.11;27.67
64460;BME280;50828;53.756;21.140;2023-05-08T12:54:44;101233.97;;;17.14;27.58
64460;BME280;50828;53.756;21.140;2023-05-08T13:00:05;101231.46;;;17.17;27.56
64460;BME280;50828;53.756;21.140;2023-05-08T13:05:19;101222.07;;;17.20;27.48
64460;BME280;50828;53.756;21.140;2023-05-08T13:10:43;101220.80;;;17.25;27.38
64460;BME280;50828;53.756;21.140;2023-05-08T13:15:52;101214.23;;;17.31;27.42
64460;BME280;50828;53.756;21.140;2023-05-08T13:20:59;101216.55;;;17.38;27.16
64460;BME280;50828;53.756;21.140;2023-05-08T13:26:08;101216.33;;;17.42;26.97
64460;BME280;50828;53.756;21.140;2023-05-08T13:31:15;101215.02;;;17.47;27.16
64460;BME280;50828;53.756;21.140;2023-05-08T13:36:23;101211.09;;;17.51;27.01
64460;BME280;50828;53.756;21.140;2023-05-08T13:41:31;101205.49;;;17.52;27.01
64460;BME280;50828;53.756;21.140;2023-05-08T13:46:39;101202.34;;;17.55;26.89
64460;BME280;50828;53.756;21.140;2023-05-08T13:51:46;101191.66;;;17.58;26.60
64460;BME280;50828;53.756;21.140;2023-05-08T13:57:01;101193.80;;;17.58;26.45
64460;BME280;50828;53.756;21.140;2023-05-08T14:02:08;101190.88;;;17.59;26.51
64460;BME280;50828;53.756;21.140;2023-05-08T14:07:16;101183.52;;;17.60;26.43
64460;BME280;50828;53.756;21.140;2023-05-08T14:12:24;101177.95;;;17.61;26.39
64460;BME280;50828;53.756;21.140;2023-05-08T14:17:31;101175.98;;;17.61;26.33
64460;BME280;50828;53.756;21.140;2023-05-08T14:22:38;101171.39;;;17.60;26.08
64460;BME280;50828;53.756;21.140;2023-05-08T14:27:46;101174.09;;;17.57;25.81
64460;BME280;50828;53.756;21.140;2023-05-08T14:32:53;101175.94;;;17.55;25.68
64460;BME280;50828;53.756;21.140;2023-05-08T14:38:01;101175.05;;;17.52;25.49
64460;BME280;50828;53.756;21.140;2023-05-08T14:43:09;101175.33;;;17.47;25.37
64460;BME280;50828;53.756;21.140;2023-05-08T14:48:16;101174.05;;;17.43;25.50
64460;BME280;50828;53.756;21.140;2023-05-08T14:53:24;101176.24;;;17.42;25.57
64460;BME280;50828;53.756;21.140;2023-05-08T14:58:31;101170.88;;;17.40;25.60
64460;BME280;50828;53.756;21.140;2023-05-08T15:03:39;101174.73;;;17.37;25.69
64460;BME280;50828;53.756;21.140;2023-05-08T15:08:46;101172.27;;;17.33;25.56
64460;BME280;50828;53.756;21.140;2023-05-08T15:13:54;101172.46;;;17.30;25.39
64460;BME280;50828;53.756;21.140;2023-05-08T15:19:01;101170.01;;;17.26;25.28
64460;BME280;50828;53.756;21.140;2023-05-08T15:24:09;101169.11;;;17.22;25.11
64460;BME280;50828;53.756;21.140;2023-05-08T15:29:17;101165.05;;;17.18;25.13
64460;BME280;50828;53.756;21.140;2023-05-08T15:34:25;101164.63;;;17.16;25.28
64460;BME280;50828;53.756;21.140;2023-05-08T15:39:37;101153.42;;;17.09;25.30
64460;BME280;50828;53.756;21.140;2023-05-08T15:44:45;101153.58;;;17.13;25.39
64460;BME280;50828;53.756;21.140;2023-05-08T15:49:55;101154.33;;;17.12;25.19
64460;BME280;50828;53.756;21.140;2023-05-08T15:55:03;101148.00;;;17.10;24.85
64460;BME280;50828;53.756;21.140;2023-05-08T16:00:12;101151.25;;;17.10;25.09
64460;BME280;50828;53.756;21.140;2023-05-08T16:05:19;101151.46;;;17.09;25.42
64460;BME280;50828;53.756;21.140;2023-05-08T16:10:27;101145.86;;;17.07;25.19
64460;BME280;50828;53.756;21.140;2023-05-08T16:15:34;101145.49;;;17.03;25.14
64460;BME280;50828;53.756;21.140;2023-05-08T16:20:42;101141.30;;;16.98;25.16
64460;BME280;50828;53.756;21.140;2023-05-08T16:25:49;101142.77;;;16.94;25.19
64460;BME280;50828;53.756;21.140;2023-05-08T16:30:57;101141.99;;;16.88;25.08
64460;BME280;50828;53.756;21.140;2023-05-08T16:36:05;101142.20;;;16.84;25.23
64460;BME280;50828;53.756;21.140;2023-05-08T16:41:12;101143.80;;;16.80;25.22
64460;BME280;50828;53.756;21.140;2023-05-08T16:46:20;101141.38;;;16.79;25.18
64460;BME280;50828;53.756;21.140;2023-05-08T16:51:34;101142.92;;;16.76;24.94
64460;BME280;50828;53.756;21.140;2023-05-08T16:56:42;101142.70;;;16.74;25.03
64460;BME280;50828;53.756;21.140;2023-05-08T17:01:49;101146.40;;;16.70;24.83
64460;BME280;50828;53.756;21.140;2023-05-08T17:06:56;101148.71;;;16.67;25.00
64460;BME280;50828;53.756;21.140;2023-05-08T17:12:05;101154.45;;;16.62;24.86
64460;BME280;50828;53.756;21.140;2023-05-08T17:17:12;101158.20;;;16.55;24.99
64460;BME280;50828;53.756;21.140;2023-05-08T17:22:20;101157.42;;;16.45;25.06
64460;BME280;50828;53.756;21.140;2023-05-08T17:27:27;101162.13;;;16.36;25.15
64460;BME280;50828;53.756;21.140;2023-05-08T17:32:35;101162.73;;;16.26;25.18
64460;BME280;50828;53.756;21.140;2023-05-08T17:37:42;101161.91;;;16.18;25.34
64460;BME280;50828;53.756;21.140;2023-05-08T17:42:49;101161.40;;;16.09;25.52
64460;BME280;50828;53.756;21.140;2023-05-08T17:47:57;101166.91;;;16.02;25.71
64460;BME280;50828;53.756;21.140;2023-05-08T17:53:08;101172.13;;;15.93;26.13
64460;BME280;50828;53.756;21.140;2023-05-08T17:58:15;101175.23;;;15.83;27.12
64460;BME280;50828;53.756;21.140;2023-05-08T18:03:22;101179.55;;;15.73;27.89
64460;BME280;50828;53.756;21.140;2023-05-08T18:08:31;101180.77;;;15.61;28.52
64460;BME280;50828;53.756;21.140;2023-05-08T18:13:39;101183.88;;;15.48;29.37
64460;BME280;50828;53.756;21.140;2023-05-08T18:18:47;101189.20;;;15.31;29.54
64460;BME280;50828;53.756;21.140;2023-05-08T18:23:54;101195.36;;;15.11;29.66
64460;BME280;50828;53.756;21.140;2023-05-08T18:29:01;101198.15;;;14.87;30.03
64460;BME280;50828;53.756;21.140;2023-05-08T18:34:10;101202.77;;;14.60;30.32
64460;BME280;50828;53.756;21.140;2023-05-08T18:39:18;101209.30;;;14.32;30.67
64460;BME280;50828;53.756;21.140;2023-05-08T18:44:25;101212.56;;;14.02;30.88
64460;BME280;50828;53.756;21.140;2023-05-08T18:49:32;101220.02;;;13.72;31.08
64460;BME280;50828;53.756;21.140;2023-05-08T18:54:40;101228.16;;;13.41;31.37
64460;BME280;50828;53.756;21.140;2023-05-08T18:59:47;101230.25;;;13.10;31.89
64460;BME280;50828;53.756;21.140;2023-05-08T19:04:54;101234.06;;;12.79;32.55
64460;BME280;50828;53.756;21.140;2023-05-08T19:10:02;101240.30;;;12.49;33.15
64460;BME280;50828;53.756;21.140;2023-05-08T19:15:10;101241.71;;;12.19;33.76
64460;BME280;50828;53.756;21.140;2023-05-08T19:20:19;101246.10;;;11.88;34.04
64460;BME280;50828;53.756;21.140;2023-05-08T19:25:27;101252.86;;;11.58;34.40
64460;BME280;50828;53.756;21.140;2023-05-08T19:30:35;101253.91;;;11.32;34.86
64460;BME280;50828;53.756;21.140;2023-05-08T19:35:42;101254.49;;;11.08;35.11
64460;BME280;50828;53.756;21.140;2023-05-08T19:40:49;101252.94;;;10.84;35.31
64460;BME280;50828;53.756;21.140;2023-05-08T19:46:02;101249.39;;;10.62;35.92
64460;BME280;50828;53.756;21.140;2023-05-08T19:51:10;101247.73;;;10.41;36.10
64460;BME280;50828;53.756;21.140;2023-05-08T19:56:17;101244.45;;;10.19;36.00
64460;BME280;50828;53.756;21.140;2023-05-08T20:01:24;101241.38;;;9.98;36.53
64460;BME280;50828;53.756;21.140;2023-05-08T20:06:31;101238.95;;;9.78;36.58
64460;BME280;50828;53.756;21.140;2023-05-08T20:11:39;101238.59;;;9.59;36.82
64460;BME280;50828;53.756;21.140;2023-05-08T20:16:46;101238.38;;;9.41;37.15
64460;BME280;50828;53.756;21.140;2023-05-08T20:21:54;101229.58;;;9.21;37.52
64460;BME280;50828;53.756;21.140;2023-05-08T20:27:01;101230.73;;;9.04;37.88
64460;BME280;50828;53.756;21.140;2023-05-08T20:32:09;101230.14;;;8.86;37.97
64460;BME280;50828;53.756;21.140;2023-05-08T20:37:19;101229.16;;;8.69;38.32
64460;BME280;50828;53.756;21.140;2023-05-08T20:42:26;101232.02;;;8.53;38.67
64460;BME280;50828;53.756;21.140;2023-05-08T20:47:33;101230.30;;;8.36;38.78
64460;BME280;50828;53.756;21.140;2023-05-08T20:52:41;101229.09;;;8.21;38.90
64460;BME280;50828;53.756;21.140;2023-05-08T20:57:48;101223.67;;;8.04;39.37
64460;BME280;50828;53.756;21.140;2023-05-08T21:02:55;101224.36;;;7.89;39.62
64460;BME280;50828;53.756;21.140;2023-05-08T21:08:03;101230.15;;;7.75;39.95
64460;BME280;50828;53.756;21.140;2023-05-08T21:13:10;101229.77;;;7.60;40.05
64460;BME280;50828;53.756;21.140;2023-05-08T21:18:18;101232.86;;;7.48;40.16
64460;BME280;50828;53.756;21.140;2023-05-08T21:23:27;101234.56;;;7.34;40.35
64460;BME280;50828;53.756;21.140;2023-05-08T21:28:35;101240.11;;;7.21;40.59
64460;BME280;50828;53.756;21.140;2023-05-08T21:33:42;101238.82;;;7.08;41.13
64460;BME280;50828;53.756;21.140;2023-05-08T21:38:50;101231.05;;;6.93;41.33
64460;BME280;50828;53.756;21.140;2023-05-08T21:43:58;101232.34;;;6.84;41.39
64460;BME280;50828;53.756;21.140;2023-05-08T21:49:05;101235.75;;;6.72;41.70
64460;BME280;50828;53.756;21.140;2023-05-08T21:54:12;101234.77;;;6.59;41.84
64460;BME280;50828;53.756;21.140;2023-05-08T21:59:19;101234.31;;;6.49;41.85
64460;BME280;50828;53.756;21.140;2023-05-08T22:04:27;101234.02;;;6.38;42.22
64460;BME280;50828;53.756;21.140;2023-05-08T22:09:34;101232.67;;;6.27;42.69
64460;BME280;50828;53.756;21.140;2023-05-08T22:14:42;101234.29;;;6.18;42.78
64460;BME280;50828;53.756;21.140;2023-05-08T22:19:49;101233.98;;;6.08;42.98
64460;BME280;50828;53.756;21.140;2023-05-08T22:24:57;101235.23;;;5.98;42.97
64460;BME280;50828;53.756;21.140;2023-05-08T22:30:05;101231.20;;;5.87;43.22
64460;BME280;50828;53.756;21.140;2023-05-08T22:35:13;101239.80;;;5.79;43.33
64460;BME280;50828;53.756;21.140;2023-05-08T22:40:20;101236.68;;;5.68;43.35
64460;BME280;50828;53.756;21.140;2023-05-08T22:45:28;101233.38;;;5.58;43.67
64460;BME280;50828;53.756;21.140;2023-05-08T22:50:35;101234.27;;;5.48;43.79
64460;BME280;50828;53.756;21.140;2023-05-08T22:55:43;101236.56;;;5.38;43.87
64460;BME280;50828;53.756;21.140;2023-05-08T23:00:50;101234.98;;;5.26;44.16
64460;BME280;50828;53.756;21.140;2023-05-08T23:05:58;101218.58;;;5.10;44.81
64460;BME280;50828;53.756;21.140;2023-05-08T23:11:05;101233.07;;;5.08;44.84
64460;BME280;50828;53.756;21.140;2023-05-08T23:16:12;101230.79;;;4.99;45.06
64460;BME280;50828;53.756;21.140;2023-05-08T23:21:20;101233.23;;;4.89;45.12
64460;BME280;50828;53.756;21.140;2023-05-08T23:26:27;101237.93;;;4.80;45.46
64460;BME280;50828;53.756;21.140;2023-05-08T23:31:35;101234.44;;;4.72;45.94
64460;BME280;50828;53.756;21.140;2023-05-08T23:36:42;101235.10;;;4.63;45.93
64460;BME280;50828;53.756;21.140;2023-05-08T23:41:49;101238.23;;;4.56;46.01
64460;BME280;50828;53.756;21.140;2023-05-08T23:46:57;101237.17;;;4.49;46.00
64460;BME280;50828;53.756;21.140;2023-05-08T23:52:05;101231.91;;;4.39;46.04
64460;BME280;50828;53.756;21.140;2023-05-08T23:57:14;101236.06;;;4.32;46.33
